Terminal Aerodrome Forecast
Issued by NWS

Home | Current Version | Previous Version | Text Only | Print | Product List | Glossary On
Versions: 1 2 3 4 5 6 7 8 9 10 11 12 13
000
FTUS45 KVEF 301120
TAFDAG
TAF
KDAG 301120Z 3012/3112 26008KT P6SM SKC
     FM301500 30007KT P6SM SKC
     FM302000 05007KT P6SM FEW250
     FM310200 26010KT P6SM FEW250=

USA.gov is the U.S. government's official web portal to all federal, state and local government web resources and services.